createdAt,value
2023-02-23T06:03:19.482Z,500.00
2023-02-23T06:04:20.436Z,500.00
2023-02-23T08:16:25.044Z,582.00
2023-02-23T08:17:25.018Z,583.00
2023-02-23T08:19:25.020Z,589.00
2023-02-23T08:20:25.043Z,585.00
2023-02-23T08:21:25.048Z,585.00
2023-02-23T08:22:25.097Z,583.00
2023-02-23T08:23:25.109Z,585.00
2023-02-23T08:24:25.145Z,591.00
2023-02-23T08:26:25.182Z,583.00
2023-02-23T08:27:25.329Z,586.00
2023-02-23T08:29:25.250Z,580.00
2023-02-23T08:30:25.301Z,582.00
2023-02-23T08:32:25.392Z,588.00
2023-02-23T08:33:25.362Z,577.00
2023-02-23T08:34:25.385Z,589.00
2023-02-23T08:35:25.399Z,586.00
2023-02-23T08:36:25.429Z,587.00
2023-02-23T08:37:25.508Z,583.00
2023-02-23T08:38:25.504Z,588.00
2023-02-23T08:40:25.575Z,568.00
2023-02-23T08:41:25.591Z,579.00
2023-02-23T08:42:25.619Z,581.00
2023-02-23T08:43:25.633Z,570.00
2023-02-23T08:44:25.626Z,571.00
2023-02-23T08:45:25.635Z,587.00
2023-02-23T08:46:25.672Z,579.00
2023-02-23T08:47:25.866Z,586.00
2023-02-23T08:48:25.679Z,590.00
2023-02-23T08:49:25.686Z,576.00
2023-02-23T08:50:27.411Z,577.00
2023-02-23T08:51:25.723Z,575.00
2023-02-23T08:53:25.836Z,544.00
2023-02-23T08:54:25.716Z,509.00
2023-02-23T08:55:25.695Z,505.00
2023-02-23T08:57:25.662Z,510.00
2023-02-23T08:58:25.655Z,507.00
2023-02-23T08:59:25.740Z,500.00
2023-02-23T09:00:25.652Z,519.00
2023-02-23T09:01:25.800Z,501.00
2023-02-23T09:02:25.666Z,500.00
2023-02-23T09:03:25.632Z,501.00
2023-02-23T09:04:25.618Z,504.00
2023-02-23T09:06:25.614Z,496.00
2023-02-23T09:07:25.613Z,500.00
2023-02-23T09:08:25.597Z,509.00
2023-02-23T09:09:25.579Z,507.00
2023-02-23T09:10:25.571Z,507.00
2023-02-23T09:13:25.559Z,548.00
2023-02-23T09:14:25.547Z,550.00
2023-02-23T09:15:25.639Z,548.00
2023-02-23T09:16:25.557Z,542.00
2023-02-23T09:17:25.535Z,541.00
2023-02-23T09:18:25.518Z,543.00
2023-02-23T09:19:25.515Z,545.00
2023-02-23T09:23:25.500Z,531.00
2023-02-23T09:24:25.482Z,530.00
2023-02-23T09:25:25.490Z,523.00
2023-02-23T09:26:25.454Z,529.00
2023-02-23T09:28:25.448Z,510.00
2023-02-23T09:29:25.435Z,517.00
2023-02-23T09:30:25.440Z,519.00
2023-02-23T09:31:25.656Z,516.00
2023-02-23T09:32:25.602Z,521.00
2023-02-23T09:36:25.424Z,580.00
2023-02-23T09:37:25.403Z,542.00
2023-02-23T09:38:25.392Z,530.00
2023-02-23T09:40:25.373Z,561.00
2023-02-23T09:43:25.374Z,505.00
2023-02-23T09:44:25.334Z,514.00
2023-02-23T09:46:25.361Z,500.00
2023-02-23T09:47:25.407Z,506.00
2023-02-23T09:48:25.442Z,511.00
2023-02-23T09:52:25.622Z,527.00
2023-02-23T09:53:25.619Z,543.00
2023-02-23T09:54:25.621Z,518.00
2023-02-23T09:55:25.642Z,521.00
2023-02-23T09:56:25.696Z,513.00
2023-02-23T09:57:25.738Z,507.00
2023-02-23T09:59:25.856Z,531.00
2023-02-23T10:02:25.958Z,536.00
2023-02-23T10:04:26.087Z,556.00
2023-02-23T10:05:25.972Z,541.00
2023-02-23T10:06:26.000Z,527.00
2023-02-23T10:07:25.021Z,539.00
2023-02-23T10:08:26.030Z,547.00
2023-02-23T10:09:26.064Z,542.00
2023-02-23T10:10:26.196Z,538.00
2023-02-23T10:11:26.205Z,511.00
2023-02-23T10:12:26.251Z,526.00
2023-02-23T10:13:26.308Z,523.00
2023-02-23T10:14:26.369Z,522.00
2023-02-23T10:15:26.439Z,524.00
2023-02-23T10:16:26.496Z,528.00
2023-02-23T10:17:26.557Z,514.00
2023-02-23T10:18:35.952Z,530.00
2023-02-23T10:19:26.635Z,530.00
2023-02-23T10:20:25.590Z,525.00
2023-02-23T10:21:26.600Z,528.00
2023-02-23T10:22:26.592Z,530.00
2023-02-23T10:23:26.587Z,543.00
2023-02-23T10:24:26.587Z,541.00
2023-02-23T10:25:26.569Z,538.00
2023-02-23T10:26:25.557Z,536.00
2023-02-23T10:27:26.549Z,522.00
2023-02-23T10:28:26.553Z,504.00
2023-02-23T10:29:26.560Z,569.00
2023-02-23T10:30:26.650Z,544.00
2023-02-23T10:31:26.763Z,541.00
2023-02-23T10:32:25.811Z,557.00
2023-02-23T10:33:26.938Z,534.00
2023-02-23T10:34:25.750Z,534.00
2023-02-23T10:35:26.882Z,530.00
2023-02-23T10:36:27.410Z,531.00
2023-02-23T10:37:27.602Z,536.00
2023-02-23T10:38:27.576Z,534.00
2023-02-23T10:39:27.501Z,505.00
2023-02-23T10:40:27.557Z,511.00
2023-02-23T10:41:27.706Z,519.00
2023-02-23T10:42:27.591Z,515.00
2023-02-23T10:43:26.234Z,485.00
2023-02-23T10:44:27.527Z,506.00
2023-02-23T10:45:26.307Z,524.00
2023-02-23T10:46:27.387Z,540.00
2023-02-23T10:47:27.722Z,540.00
2023-02-23T10:48:27.024Z,536.00
2023-02-23T10:49:26.476Z,545.00
2023-02-23T10:50:27.685Z,540.00
2023-02-23T10:51:27.686Z,529.00
2023-02-23T10:52:27.654Z,524.00
2023-02-23T10:53:27.834Z,531.00
2023-02-23T10:54:27.666Z,535.00
2023-02-23T10:55:26.674Z,545.00
2023-02-23T10:56:27.372Z,522.00
2023-02-23T10:57:26.725Z,529.00
2023-02-23T10:58:26.866Z,543.00
2023-02-23T10:59:27.706Z,540.00
2023-02-23T11:00:26.738Z,528.00
2023-02-23T11:01:27.810Z,538.00
2023-02-23T11:02:26.778Z,537.00
2023-02-23T11:03:26.735Z,535.00
2023-02-23T11:04:27.786Z,527.00
2023-02-23T11:05:27.064Z,531.00
2023-02-23T11:06:26.741Z,530.00
2023-02-23T11:07:27.930Z,533.00
2023-02-23T11:08:27.258Z,533.00
2023-02-23T11:09:43.765Z,524.00
2023-02-23T11:10:27.828Z,525.00
2023-02-23T11:11:27.779Z,527.00
2023-02-23T11:12:27.783Z,531.00
2023-02-23T11:13:27.760Z,530.00
2023-02-23T11:14:27.773Z,533.00
2023-02-23T11:15:39.357Z,542.00
2023-02-23T11:16:27.856Z,542.00
2023-02-23T11:17:26.793Z,531.00
2023-02-23T11:18:28.407Z,516.00
2023-02-23T11:19:26.737Z,502.00
2023-02-23T11:20:27.792Z,518.00
2023-02-23T11:21:27.718Z,512.00
2023-02-23T11:22:27.716Z,522.00
2023-02-23T11:23:27.738Z,524.00
2023-02-23T11:24:27.700Z,519.00
2023-02-23T11:25:26.701Z,511.00
2023-02-23T11:26:27.770Z,510.00
2023-02-23T11:27:27.801Z,518.00
2023-02-23T11:28:27.865Z,517.00
2023-02-23T11:29:27.918Z,512.00
2023-02-23T11:30:28.055Z,507.00
2023-02-23T11:31:28.196Z,512.00
2023-02-23T11:32:28.324Z,507.00
2023-02-23T11:34:28.226Z,507.00
2023-02-23T11:35:28.297Z,509.00
2023-02-23T11:52:28.946Z,540.00
2023-02-23T11:57:29.041Z,530.00
2023-02-23T12:00:29.151Z,540.00
2023-02-23T13:15:31.733Z,569.00
2023-02-23T15:14:33.763Z,581.00
2023-02-23T15:15:32.792Z,588.00
2023-02-23T15:16:33.825Z,593.00
2023-02-23T15:21:33.963Z,514.00
2023-02-23T15:22:34.011Z,503.00
2023-02-23T15:23:34.134Z,500.00
2023-02-23T15:24:34.137Z,500.00
2023-02-23T15:25:34.198Z,513.00
2023-02-23T15:26:33.282Z,516.00
2023-02-23T15:27:33.333Z,516.00
2023-02-23T15:28:34.373Z,510.00
2023-02-23T15:29:33.442Z,508.00
2023-02-23T15:30:34.505Z,507.00
2023-02-23T15:31:34.921Z,500.00
2023-02-23T15:32:34.808Z,500.00
2023-02-23T15:33:33.619Z,500.00
2023-02-23T15:34:33.670Z,502.00
2023-02-23T15:35:33.690Z,500.00
2023-02-23T15:36:34.750Z,507.00
2023-02-23T15:37:33.706Z,502.00
2023-02-23T15:38:43.605Z,500.00
2023-02-23T15:39:34.768Z,501.00
2023-02-23T15:40:33.749Z,505.00
2023-02-23T15:41:34.754Z,507.00
2023-02-23T15:42:34.715Z,500.00
2023-02-23T15:43:34.712Z,489.00
2023-02-23T15:44:43.635Z,500.00
2023-02-23T15:45:34.755Z,500.00
2023-02-23T15:46:34.685Z,501.00
2023-02-23T15:47:33.678Z,500.00
2023-02-23T15:48:34.691Z,500.00
2023-02-23T15:49:34.707Z,498.00
2023-02-23T15:50:37.075Z,502.00
2023-02-23T15:51:33.687Z,502.00
2023-02-23T15:52:34.655Z,491.00
2023-02-23T15:53:33.660Z,491.00
2023-02-23T15:54:34.661Z,484.00
2023-02-23T15:55:34.671Z,483.00
2023-02-23T15:56:33.644Z,505.00
2023-02-23T15:57:34.624Z,505.00
2023-02-23T15:58:36.210Z,511.00
2023-02-23T15:59:34.600Z,511.00
2023-02-23T16:00:34.595Z,510.00
2023-02-23T16:01:33.597Z,500.00
2023-02-23T16:02:34.579Z,503.00
2023-02-23T16:03:34.614Z,502.00
2023-02-23T16:04:34.574Z,509.00
2023-02-23T16:05:38.338Z,509.00
2023-02-23T16:06:34.564Z,509.00
2023-02-23T16:07:34.549Z,509.00
2023-02-23T16:08:36.575Z,513.00
2023-02-23T16:09:34.561Z,509.00
2023-02-23T16:10:34.525Z,511.00
2023-02-23T16:11:34.560Z,516.00
2023-02-23T16:12:33.504Z,523.00
2023-02-23T16:13:34.498Z,535.00
2023-02-23T16:14:34.485Z,537.00
2023-02-23T16:15:34.522Z,537.00
2023-02-23T16:16:33.589Z,530.00
2023-02-23T16:17:34.471Z,527.00
2023-02-23T16:18:33.467Z,519.00
2023-02-23T16:19:33.460Z,515.00
2023-02-23T16:20:34.465Z,518.00
2023-02-23T16:21:34.458Z,530.00
2023-02-23T16:22:34.443Z,530.00
2023-02-23T16:23:34.731Z,520.00
2023-02-23T16:24:33.423Z,533.00
2023-02-23T16:25:34.442Z,528.00
2023-02-23T16:26:34.421Z,531.00
2023-02-23T16:27:34.440Z,537.00
2023-02-23T16:28:33.418Z,536.00
2023-02-23T16:29:34.403Z,535.00
